createdAt,value
2017-01-03T00:00:43.891Z,94.08
2017-01-03T00:01:43.479Z,94.18
2017-01-03T00:02:43.895Z,94.37
2017-01-03T00:03:43.887Z,94.65
2017-01-03T00:04:43.875Z,94.56
2017-01-03T00:05:43.880Z,94.65
2017-01-03T00:06:43.463Z,93.89
2017-01-03T00:07:43.860Z,94.65
2017-01-03T00:08:43.860Z,94.56
2017-01-03T00:09:43.856Z,94.08
2017-01-03T00:10:43.861Z,94.84
2017-01-03T00:11:43.432Z,94.84
2017-01-03T00:12:43.867Z,94.46
2017-01-03T00:13:43.832Z,93.8
2017-01-03T00:14:43.839Z,93.7
2017-01-03T00:15:43.832Z,93.51
2017-01-03T00:16:43.416Z,93.42
2017-01-03T00:17:43.824Z,94.18
2017-01-03T00:18:43.820Z,93.7
2017-01-03T00:19:43.812Z,93.89
2017-01-03T00:20:43.808Z,93.61
2017-01-03T00:21:43.808Z,93.89
2017-01-03T00:22:43.392Z,94.08
2017-01-03T00:23:43.792Z,93.99
2017-01-03T00:24:43.789Z,93.8
2017-01-03T00:25:43.781Z,93.89
2017-01-03T00:26:43.369Z,93.8
2017-01-03T00:27:43.777Z,94.08
2017-01-03T00:28:43.777Z,93.8
2017-01-03T00:29:43.773Z,93.99
2017-01-03T00:30:43.761Z,94.08
2017-01-03T00:31:43.757Z,93.89
2017-01-03T00:32:43.345Z,94.08
2017-01-03T00:33:43.749Z,93.8
2017-01-03T00:34:43.745Z,93.89
2017-01-03T00:35:43.741Z,93.99
2017-01-03T00:36:43.734Z,94.18
2017-01-03T00:37:43.322Z,93.61
2017-01-03T00:38:43.733Z,93.8
2017-01-03T00:39:43.725Z,93.99
2017-01-03T00:40:43.718Z,93.8
2017-01-03T00:41:43.306Z,93.7
2017-01-03T00:42:43.709Z,94.27
2017-01-03T00:43:43.710Z,94.27
2017-01-03T00:44:43.706Z,94.08
2017-01-03T00:45:43.694Z,94.27
2017-01-03T00:46:43.282Z,93.99
2017-01-03T00:47:43.282Z,93.89
2017-01-03T00:48:43.278Z,93.7
2017-01-03T00:49:43.682Z,93.8
2017-01-03T00:50:43.670Z,93.8
2017-01-03T00:51:43.258Z,93.99
2017-01-03T00:52:43.259Z,93.7
2017-01-03T00:53:43.670Z,93.8
2017-01-03T00:54:43.655Z,93.61
2017-01-03T00:55:43.655Z,93.8
2017-01-03T00:56:43.238Z,93.51
2017-01-03T00:57:43.643Z,93.51
2017-01-03T00:58:43.647Z,93.8
2017-01-03T00:59:43.635Z,94.08
2017-01-03T01:00:43.219Z,93.32
2017-01-03T01:01:43.215Z,93.32
2017-01-03T01:02:43.623Z,93.23
2017-01-03T01:03:43.615Z,93.04
2017-01-03T01:04:43.612Z,93.13
2017-01-03T01:05:43.199Z,93.51
2017-01-03T01:06:43.607Z,93.61
2017-01-03T01:07:43.599Z,93.42
2017-01-03T01:08:43.595Z,93.13
2017-01-03T01:09:43.179Z,93.42
2017-01-03T01:10:43.584Z,93.04
2017-01-03T01:11:43.583Z,93.32
2017-01-03T01:12:43.584Z,93.61
2017-01-03T01:13:43.575Z,93.04
2017-01-03T01:14:43.160Z,93.7
2017-01-03T01:15:43.568Z,93.32
2017-01-03T01:16:43.568Z,93.13
2017-01-03T01:17:43.611Z,93.51
2017-01-03T01:18:43.140Z,93.32
2017-01-03T01:19:43.132Z,92.85
2017-01-03T01:20:43.136Z,93.61
2017-01-03T01:21:43.544Z,93.8
2017-01-03T01:22:43.124Z,93.23
2017-01-03T01:23:43.120Z,93.32
2017-01-03T01:24:43.528Z,93.51
2017-01-03T01:25:43.524Z,93.32
2017-01-03T01:26:43.516Z,93.04
2017-01-03T01:27:43.108Z,93.32
2017-01-03T01:28:43.100Z,93.32
2017-01-03T01:29:43.500Z,93.32
2017-01-03T01:30:43.500Z,93.23
2017-01-03T01:31:43.084Z,93.23
2017-01-03T01:32:43.488Z,93.23
2017-01-03T01:33:43.480Z,93.23
2017-01-03T01:34:43.480Z,93.23
2017-01-03T01:35:43.480Z,93.42
2017-01-03T01:36:43.064Z,92.94
2017-01-03T01:37:43.465Z,93.51
2017-01-03T01:38:43.460Z,93.61
2017-01-03T01:39:43.048Z,93.51
2017-01-03T01:40:43.456Z,93.04
2017-01-03T01:41:43.444Z,92.94
2017-01-03T01:42:43.440Z,93.04
2017-01-03T01:43:43.446Z,93.13
2017-01-03T01:44:43.020Z,92.85
2017-01-03T01:45:43.428Z,93.04
2017-01-03T01:46:43.424Z,92.85
2017-01-03T01:47:43.420Z,92.66
2017-01-03T01:48:43.004Z,93.32
2017-01-03T01:49:43.425Z,92.47
2017-01-03T01:50:43.412Z,93.13
2017-01-03T01:51:43.400Z,92.57
2017-01-03T01:52:42.988Z,92.29
2017-01-03T01:53:43.395Z,92.85
2017-01-03T01:54:43.388Z,92.57
2017-01-03T01:55:43.416Z,92.29
2017-01-03T01:56:42.964Z,92.52
2017-01-03T01:57:43.376Z,92.76
2017-01-03T01:58:43.368Z,92.38
2017-01-03T01:59:43.368Z,92.85
2017-01-03T02:00:43.368Z,92.38
2017-01-03T02:01:43.364Z,92.43
2017-01-03T02:02:43.360Z,91.91
2017-01-03T02:03:43.352Z,92.19
2017-01-03T02:04:43.344Z,92.47
2017-01-03T02:05:43.340Z,92.38
2017-01-03T02:06:43.336Z,91.91
2017-01-03T02:07:43.328Z,92.9
2017-01-03T02:08:43.336Z,92.66
2017-01-03T02:09:43.325Z,92.24
2017-01-03T02:10:43.313Z,92.85
2017-01-03T02:11:43.316Z,92.66
2017-01-03T02:12:43.309Z,92.38
2017-01-03T02:13:42.889Z,92.19
2017-01-03T02:14:43.304Z,92.38
2017-01-03T02:15:43.297Z,92.1
2017-01-03T02:16:43.293Z,92.19
2017-01-03T02:17:43.289Z,91.81
2017-01-03T02:18:42.881Z,92.57
2017-01-03T02:19:43.305Z,92.38
2017-01-03T02:20:43.273Z,91.91
2017-01-03T02:21:42.857Z,91.81
2017-01-03T02:22:43.270Z,91.81
2017-01-03T02:23:43.262Z,91.72
2017-01-03T02:24:43.254Z,92.19
2017-01-03T02:25:43.258Z,92.1
2017-01-03T02:26:42.838Z,92.1
2017-01-03T02:27:43.246Z,92
2017-01-03T02:28:43.242Z,92.38
2017-01-03T02:29:43.257Z,92.29
2017-01-03T02:30:42.818Z,92.19
2017-01-03T02:31:43.230Z,92.19
2017-01-03T02:32:43.222Z,92.47
2017-01-03T02:33:43.222Z,92
2017-01-03T02:34:43.214Z,92.29
2017-01-03T02:35:42.799Z,92.29
2017-01-03T02:36:43.202Z,92.1
2017-01-03T02:37:43.202Z,91.91
2017-01-03T02:38:42.786Z,92.1
2017-01-03T02:39:43.187Z,92.29
2017-01-03T02:40:43.183Z,92.38
2017-01-03T02:41:43.179Z,92.19
2017-01-03T02:42:42.767Z,92.38
2017-01-03T02:43:42.763Z,92.38
2017-01-03T02:44:42.754Z,92.29
2017-01-03T02:45:43.159Z,92
2017-01-03T02:46:43.155Z,92
2017-01-03T02:47:42.747Z,92.19
2017-01-03T02:48:43.150Z,92
2017-01-03T02:49:43.147Z,92.1
2017-01-03T02:50:43.147Z,91.91
2017-01-03T02:51:42.728Z,92.29
2017-01-03T02:52:43.135Z,91.81
2017-01-03T02:53:43.128Z,91.72
2017-01-03T02:54:43.127Z,92.19
2017-01-03T02:55:43.119Z,91.72
2017-01-03T02:56:43.112Z,92.19
2017-01-03T02:57:43.116Z,92.19
2017-01-03T02:58:43.112Z,92.38
2017-01-03T02:59:42.688Z,91.96
2017-01-03T03:00:43.096Z,92.24
2017-01-03T03:01:43.088Z,91.96
2017-01-03T03:02:43.088Z,92.33
2017-01-03T03:03:43.088Z,92.24
2017-01-03T03:04:42.668Z,92.8
2017-01-03T03:05:43.080Z,92.14
2017-01-03T03:06:43.073Z,92.14
2017-01-03T03:07:42.653Z,92.52
2017-01-03T03:08:42.649Z,92.33
2017-01-03T03:09:43.053Z,92.43
2017-01-03T03:10:43.048Z,92.33
2017-01-03T03:11:43.052Z,92.61
2017-01-03T03:12:42.632Z,92.61
2017-01-03T03:13:43.045Z,92.52
2017-01-03T03:14:43.037Z,92.52
2017-01-03T03:15:43.033Z,92.52
2017-01-03T03:16:43.024Z,93.18
2017-01-03T03:17:43.018Z,93.09
2017-01-03T03:18:43.021Z,92.8
2017-01-03T03:19:42.605Z,93.18
2017-01-03T03:20:43.005Z,92.71
2017-01-03T03:21:43.005Z,92.43
2017-01-03T03:22:42.590Z,92.52
2017-01-03T03:23:42.990Z,92.99
2017-01-03T03:24:42.982Z,92.9
2017-01-03T03:25:42.986Z,93.28
2017-01-03T03:26:42.569Z,93.18
2017-01-03T03:27:42.978Z,93.28
2017-01-03T03:28:42.966Z,93.28
2017-01-03T03:29:42.554Z,92.99
2017-01-03T03:30:42.554Z,92.99
2017-01-03T03:31:42.954Z,93.18
2017-01-03T03:32:42.542Z,92.99
2017-01-03T03:33:42.538Z,92.99
2017-01-03T03:34:42.942Z,92.99
2017-01-03T03:35:42.946Z,92.8
2017-01-03T03:36:42.523Z,92.8
2017-01-03T03:37:42.930Z,92.8
2017-01-03T03:38:42.927Z,92.9
2017-01-03T03:39:42.515Z,92.9
2017-01-03T03:40:42.911Z,93.37
2017-01-03T03:41:42.919Z,92.61
2017-01-03T03:42:42.911Z,92.9
2017-01-03T03:43:42.935Z,93.09
2017-01-03T03:44:42.899Z,92.9
2017-01-03T03:45:42.485Z,93.18
2017-01-03T03:46:42.887Z,92.99
2017-01-03T03:47:42.887Z,93.18
2017-01-03T03:48:42.879Z,93.18
2017-01-03T03:49:42.879Z,93.18
2017-01-03T03:50:42.871Z,93.18
2017-01-03T03:51:42.867Z,93.18
2017-01-03T03:52:42.863Z,93.28
2017-01-03T03:53:42.860Z,93.09
2017-01-03T03:54:42.851Z,93.18
2017-01-03T03:55:42.847Z,93.09
2017-01-03T03:56:42.859Z,92.99
2017-01-03T03:57:42.423Z,93.47
2017-01-03T03:58:42.832Z,93.18
2017-01-03T03:59:42.832Z,93.56
2017-01-03T04:00:42.412Z,93.47
2017-01-03T04:01:42.824Z,92.9
2017-01-03T04:02:42.820Z,92.9
2017-01-03T04:03:42.400Z,92.9
2017-01-03T04:04:42.812Z,92.9
2017-01-03T04:05:42.804Z,93.28
2017-01-03T04:06:42.789Z,93.28
2017-01-03T04:07:42.796Z,93.09
2017-01-03T04:08:42.788Z,92.99
2017-01-03T04:09:42.376Z,92.61
2017-01-03T04:10:42.788Z,93.18
2017-01-03T04:11:42.360Z,93.18
2017-01-03T04:12:42.774Z,92.8
2017-01-03T04:13:42.768Z,93.18
2017-01-03T04:14:42.353Z,93.18
2017-01-03T04:15:42.760Z,92.8
2017-01-03T04:16:42.756Z,92.71
2017-01-03T04:17:42.740Z,92.99
2017-01-03T04:18:42.740Z,92.8
2017-01-03T04:19:42.744Z,92.9
2017-01-03T04:20:42.734Z,92.8
2017-01-03T04:21:42.729Z,92.99
2017-01-03T04:22:42.321Z,93.37
2017-01-03T04:23:42.721Z,92.61
2017-01-03T04:24:42.301Z,93.28
2017-01-03T04:25:42.713Z,93.04
2017-01-03T04:26:42.709Z,92.47
2017-01-03T04:27:42.297Z,93.13
2017-01-03T04:28:42.701Z,92.38
2017-01-03T04:29:42.697Z,92.47
2017-01-03T04:30:42.693Z,92.47
2017-01-03T04:31:42.681Z,92.29
2017-01-03T04:32:42.273Z,92.29
2017-01-03T04:33:42.681Z,92.47
2017-01-03T04:34:42.257Z,92.38
2017-01-03T04:35:42.669Z,92.29
2017-01-03T04:36:42.657Z,92.38
2017-01-03T04:37:42.249Z,93.13
2017-01-03T04:38:42.654Z,92.19
2017-01-03T04:39:42.654Z,93.18
2017-01-03T04:40:42.645Z,93.09
2017-01-03T04:41:42.642Z,92.99
2017-01-03T04:42:42.221Z,92.8
2017-01-03T04:43:42.629Z,92.61
2017-01-03T04:44:42.209Z,93.09
2017-01-03T04:45:42.617Z,92.99
2017-01-03T04:46:42.609Z,92.8
2017-01-03T04:47:42.613Z,92.99
2017-01-03T04:48:42.613Z,93.18
2017-01-03T04:49:42.601Z,93.09
2017-01-03T04:50:42.590Z,93.18
2017-01-03T04:51:42.593Z,93.37
2017-01-03T04:52:42.587Z,93.18
2017-01-03T04:53:42.173Z,93.75
2017-01-03T04:54:42.169Z,93.56
2017-01-03T04:55:42.574Z,93.56
2017-01-03T04:56:42.573Z,93.28
2017-01-03T04:57:42.173Z,93.56
2017-01-03T04:58:42.558Z,93.84
2017-01-03T04:59:42.549Z,94.03
2017-01-03T05:00:42.550Z,94.32
2017-01-03T05:01:42.550Z,94.22
2017-01-03T05:02:42.546Z,93.84
2017-01-03T05:03:42.537Z,93.94
2017-01-03T05:04:42.530Z,93.66
2017-01-03T05:05:42.526Z,93.56
2017-01-03T05:06:42.525Z,93.66
2017-01-03T05:07:42.106Z,93.66
2017-01-03T05:08:42.509Z,93.56
2017-01-03T05:09:42.505Z,93.28
2017-01-03T05:10:42.505Z,93.56
2017-01-03T05:11:42.498Z,93.84
2017-01-03T05:12:42.490Z,93.75
2017-01-03T05:13:42.073Z,94.03
2017-01-03T05:14:42.485Z,94.13
2017-01-03T05:15:42.066Z,94.7
2017-01-03T05:16:42.473Z,94.32
2017-01-03T05:17:42.477Z,94.51
2017-01-03T05:18:42.457Z,94.32
2017-01-03T05:19:42.453Z,94.6
2017-01-03T05:20:42.453Z,94.32
2017-01-03T05:21:42.445Z,94.22
2017-01-03T05:22:42.029Z,94.18
2017-01-03T05:23:42.440Z,93.89
2017-01-03T05:24:42.025Z,94.08
2017-01-03T05:25:42.433Z,94.27
2017-01-03T05:26:42.443Z,94.18
2017-01-03T05:27:42.008Z,94.08
2017-01-03T05:28:42.001Z,94.36
2017-01-03T05:29:41.997Z,94.27
2017-01-03T05:30:42.400Z,94.08
2017-01-03T05:31:41.988Z,94.08
2017-01-03T05:32:41.980Z,95.21
2017-01-03T05:33:42.380Z,94.27
2017-01-03T05:34:42.384Z,94.46
2017-01-03T05:35:42.380Z,94.65
2017-01-03T05:36:42.370Z,94.46
2017-01-03T05:37:41.956Z,94.84
2017-01-03T05:38:42.360Z,93.89
2017-01-03T05:39:42.360Z,93.89
2017-01-03T05:40:41.936Z,94.55
2017-01-03T05:41:42.348Z,94.46
2017-01-03T05:42:42.338Z,94.36
2017-01-03T05:43:42.336Z,94.08
2017-01-03T05:44:42.340Z,94.08
2017-01-03T05:45:42.328Z,93.51
2017-01-03T05:46:41.912Z,93.7
2017-01-03T05:47:42.324Z,93.99
2017-01-03T05:48:42.316Z,94.36
2017-01-03T05:49:41.904Z,93.8
2017-01-03T05:50:42.308Z,93.61
2017-01-03T05:51:42.312Z,93.7
2017-01-03T05:52:41.884Z,93.7
2017-01-03T05:53:42.544Z,93.89
2017-01-03T05:54:42.284Z,93.89
2017-01-03T05:55:42.284Z,94.08
2017-01-03T05:56:41.868Z,94.18
2017-01-03T05:57:42.276Z,94.18
2017-01-03T05:58:42.260Z,94.08
2017-01-03T05:59:42.252Z,94.18
2017-01-03T06:00:41.840Z,94.27
2017-01-03T06:01:42.256Z,94.18
2017-01-03T06:02:42.249Z,94.36
2017-01-03T06:03:42.244Z,94.08
2017-01-03T06:04:42.236Z,94.27
2017-01-03T06:05:42.224Z,94.18
2017-01-03T06:06:41.816Z,93.89
2017-01-03T06:07:42.228Z,94.36
2017-01-03T06:08:41.803Z,94.36
2017-01-03T06:09:42.208Z,94.55
2017-01-03T06:10:42.204Z,94.18
2017-01-03T06:11:42.200Z,94.36
2017-01-03T06:12:41.784Z,93.99
2017-01-03T06:13:41.785Z,93.7
2017-01-03T06:14:42.180Z,93.23
2017-01-03T06:15:42.180Z,93.23
2017-01-03T06:16:42.176Z,93.61
2017-01-03T06:17:41.764Z,93.42
2017-01-03T06:18:41.756Z,93.47
2017-01-03T06:19:42.160Z,93.56
2017-01-03T06:20:42.156Z,93.18
2017-01-03T06:21:42.152Z,93.56
2017-01-03T06:22:42.149Z,93.47
2017-01-03T06:23:42.136Z,93.47
2017-01-03T06:24:41.720Z,93.37
2017-01-03T06:25:42.120Z,92.8
2017-01-03T06:26:42.120Z,93.09
2017-01-03T06:27:42.116Z,93.09
2017-01-03T06:28:42.108Z,92.99
2017-01-03T06:29:42.108Z,92.9
2017-01-03T06:30:42.104Z,93.09
2017-01-03T06:31:41.682Z,92.99
2017-01-03T06:32:42.093Z,93.18
2017-01-03T06:33:42.088Z,92.52
2017-01-03T06:34:42.084Z,92.43
2017-01-03T06:35:42.073Z,92.52
2017-01-03T06:36:42.077Z,92.99
2017-01-03T06:37:42.069Z,92.8
2017-01-03T06:38:42.064Z,93.09
2017-01-03T06:39:41.641Z,92.52
2017-01-03T06:40:42.057Z,93.09
2017-01-03T06:41:42.049Z,92.8
2017-01-03T06:42:42.045Z,92.52
2017-01-03T06:43:42.034Z,92.61
2017-01-03T06:44:42.029Z,92.9
2017-01-03T06:45:42.029Z,93.09
2017-01-03T06:46:42.049Z,93.75
2017-01-03T06:47:42.017Z,93.28
2017-01-03T06:48:42.017Z,93.84
2017-01-03T06:49:41.597Z,93.94
2017-01-03T06:50:41.589Z,93.18
2017-01-03T06:51:41.585Z,93.65
2017-01-03T06:52:41.989Z,93.47
2017-01-03T06:53:41.985Z,93.09
2017-01-03T06:54:41.981Z,93.18
2017-01-03T06:55:42.005Z,93.28
2017-01-03T06:56:41.970Z,93.09
2017-01-03T06:57:41.965Z,92.99
2017-01-03T06:58:41.970Z,93.09
2017-01-03T06:59:41.958Z,93.56
2017-01-03T07:00:41.946Z,93.65
2017-01-03T07:01:41.978Z,93.84
2017-01-03T07:02:41.937Z,93.65
2017-01-03T07:03:41.938Z,93.37
2017-01-03T07:04:41.934Z,93.28
2017-01-03T07:05:41.926Z,93.65
2017-01-03T07:06:41.918Z,93.94
2017-01-03T07:07:41.915Z,94.22
2017-01-03T07:08:41.930Z,94.22
2017-01-03T07:09:41.906Z,94.6
2017-01-03T07:10:41.898Z,94.32
2017-01-03T07:11:41.891Z,94.22
2017-01-03T07:12:41.883Z,94.41
2017-01-03T07:13:41.878Z,94.22
2017-01-03T07:14:41.878Z,94.79
2017-01-03T07:15:41.870Z,94.98
2017-01-03T07:16:41.871Z,94.46
2017-01-03T07:17:41.863Z,94.65
2017-01-03T07:18:41.859Z,94.46
2017-01-03T07:19:41.847Z,94.65
2017-01-03T07:20:41.843Z,94.65
2017-01-03T07:21:41.843Z,94.93
2017-01-03T07:22:41.831Z,94.65
2017-01-03T07:23:41.831Z,95.4
2017-01-03T07:24:41.819Z,94.46
2017-01-03T07:25:41.835Z,94.74
2017-01-03T07:26:41.819Z,94.74
2017-01-03T07:27:41.807Z,94.65
2017-01-03T07:28:41.803Z,94.74
2017-01-03T07:29:41.799Z,94.46
2017-01-03T07:30:41.791Z,94.36
2017-01-03T07:31:41.784Z,94.36
2017-01-03T07:32:41.787Z,94.93
2017-01-03T07:33:41.790Z,94.46
2017-01-03T07:34:41.775Z,94.55
2017-01-03T07:35:41.764Z,94.18
2017-01-03T07:36:41.763Z,94.18
2017-01-03T07:37:41.757Z,93.99
2017-01-03T07:38:41.755Z,94.36
2017-01-03T07:39:41.748Z,93.99
2017-01-03T07:40:41.740Z,93.89
2017-01-03T07:41:41.732Z,93.7
2017-01-03T07:42:41.732Z,93.99
2017-01-03T07:43:41.728Z,93.8
2017-01-03T07:44:41.716Z,93.99
2017-01-03T07:45:41.712Z,93.61
2017-01-03T07:46:41.300Z,93.61
2017-01-03T07:47:41.292Z,93.51
2017-01-03T07:48:41.700Z,93.7
2017-01-03T07:49:41.703Z,93.7
2017-01-03T07:50:41.684Z,93.51
2017-01-03T07:51:41.685Z,93.8
2017-01-03T07:52:41.680Z,93.7
2017-01-03T07:53:41.680Z,93.13
2017-01-03T07:54:41.664Z,93.61
2017-01-03T07:55:41.668Z,93.42
2017-01-03T07:56:41.657Z,93.51
2017-01-03T07:57:41.236Z,93.61
2017-01-03T07:58:41.240Z,93.75
2017-01-03T07:59:41.641Z,93.89
2017-01-03T08:00:41.641Z,93.7
2017-01-03T08:01:41.637Z,93.7
2017-01-03T08:02:41.625Z,93.89
2017-01-03T08:03:41.625Z,93.7
2017-01-03T08:04:41.613Z,93.7
2017-01-03T08:05:41.201Z,93.61
2017-01-03T08:06:41.603Z,93.8
2017-01-03T08:07:41.605Z,93.51
2017-01-03T08:08:41.601Z,93.61
2017-01-03T08:09:41.593Z,93.51
2017-01-03T08:10:41.177Z,93.32
2017-01-03T08:11:41.581Z,93.51
2017-01-03T08:12:41.585Z,93.7
2017-01-03T08:13:41.573Z,93.7
2017-01-03T08:14:41.565Z,93.89
2017-01-03T08:15:41.153Z,93.8
2017-01-03T08:16:41.557Z,93.42
2017-01-03T08:17:41.553Z,93.04
2017-01-03T08:18:41.751Z,92.95
2017-01-03T08:19:41.133Z,92.95
2017-01-03T08:20:41.533Z,93.04
2017-01-03T08:21:41.534Z,93.04
2017-01-03T08:22:41.121Z,93.04
2017-01-03T08:23:41.105Z,93.04
2017-01-03T08:24:41.521Z,92.95
2017-01-03T08:25:41.618Z,92.95
2017-01-03T08:26:41.509Z,93.04
2017-01-03T08:27:41.502Z,92.66
2017-01-03T08:28:41.493Z,93.04
2017-01-03T08:29:41.493Z,93.23
2017-01-03T08:30:41.486Z,92.76
2017-01-03T08:31:41.482Z,93.04
2017-01-03T08:32:41.474Z,93.04
2017-01-03T08:33:41.477Z,92.95
2017-01-03T08:34:41.461Z,92.66
2017-01-03T08:35:41.461Z,92.85
2017-01-03T08:36:41.045Z,92.85
2017-01-03T08:37:41.449Z,93.13
2017-01-03T08:38:41.454Z,92.85
2017-01-03T08:39:41.441Z,92.85
2017-01-03T08:40:41.433Z,92.85
2017-01-03T08:41:41.434Z,92.76
2017-01-03T08:42:41.429Z,92.76
2017-01-03T08:43:41.421Z,92.85
2017-01-03T08:44:41.414Z,92.85
2017-01-03T08:45:41.418Z,92.85
2017-01-03T08:46:41.417Z,92.85
2017-01-03T08:47:41.398Z,93.13
2017-01-03T08:48:41.401Z,93.13
2017-01-03T08:49:40.985Z,92.38
2017-01-03T08:50:41.386Z,92.66
2017-01-03T08:51:41.386Z,92.19
2017-01-03T08:52:40.969Z,92.19
2017-01-03T08:53:41.374Z,92.38
2017-01-03T08:54:40.957Z,92.38
2017-01-03T08:55:40.958Z,92.38
2017-01-03T08:56:41.361Z,92.19
2017-01-03T08:57:41.357Z,92.29
2017-01-03T08:58:41.348Z,91.91
2017-01-03T08:59:41.345Z,92.29
2017-01-03T09:00:40.936Z,93.13
2017-01-03T09:01:41.334Z,93.13
2017-01-03T09:02:41.330Z,92.29
2017-01-03T09:03:40.922Z,92
2017-01-03T09:04:41.326Z,92.1
2017-01-03T09:05:41.313Z,91.82
2017-01-03T09:06:40.894Z,91.91
2017-01-03T09:07:41.305Z,92
2017-01-03T09:08:41.297Z,91.82
2017-01-03T09:09:41.297Z,92.29
2017-01-03T09:10:41.285Z,92.38
2017-01-03T09:11:41.288Z,92.29
2017-01-03T09:12:41.280Z,92.33
2017-01-03T09:13:41.276Z,92.24
2017-01-03T09:14:41.268Z,92.33
2017-01-03T09:15:41.268Z,92.33
2017-01-03T09:16:40.852Z,93.18
2017-01-03T09:17:41.263Z,93.09
2017-01-03T09:18:41.253Z,93.18
2017-01-03T09:19:41.243Z,92.14
2017-01-03T09:20:41.239Z,92.14
2017-01-03T09:21:41.239Z,92.14
2017-01-03T09:22:41.231Z,93.18
2017-01-03T09:23:41.226Z,93.09
2017-01-03T09:24:41.226Z,92.9
2017-01-03T09:25:41.214Z,92.8
2017-01-03T09:26:41.206Z,92.8
2017-01-03T09:27:41.215Z,92.71
2017-01-03T09:28:41.205Z,92.94
2017-01-03T09:29:41.202Z,92.9
2017-01-03T09:30:41.189Z,92.38
2017-01-03T09:31:41.189Z,92.47
2017-01-03T09:32:40.769Z,92.85
2017-01-03T09:33:41.173Z,92.1
2017-01-03T09:34:41.173Z,93.04
2017-01-03T09:35:41.169Z,92.19
2017-01-03T09:36:41.161Z,92.47
2017-01-03T09:37:41.161Z,92.57
2017-01-03T09:38:41.153Z,92.38
2017-01-03T09:39:40.740Z,92.1
2017-01-03T09:40:41.149Z,92.19
2017-01-03T09:41:40.728Z,92.38
2017-01-03T09:42:41.125Z,91.44
2017-01-03T09:43:41.124Z,92.29
2017-01-03T09:44:40.712Z,92.19
2017-01-03T09:45:41.124Z,92
2017-01-03T09:46:41.140Z,92.29
2017-01-03T09:47:41.112Z,92.19
2017-01-03T09:48:41.104Z,92.19
2017-01-03T09:49:41.099Z,91.15
2017-01-03T09:50:40.687Z,91.25
2017-01-03T09:51:41.087Z,92
2017-01-03T09:52:41.087Z,92.29
2017-01-03T09:53:40.671Z,92.38
2017-01-03T09:54:40.667Z,91.72
2017-01-03T09:55:41.079Z,91.25
2017-01-03T09:56:41.071Z,91.82
2017-01-03T09:57:40.654Z,91.44
2017-01-03T09:58:41.054Z,91.01
2017-01-03T09:59:41.051Z,90.91
2017-01-03T10:00:41.055Z,91.39
2017-01-03T10:01:41.042Z,90.73
2017-01-03T10:02:40.630Z,90.91
2017-01-03T10:03:41.031Z,90.35
2017-01-03T10:04:41.030Z,90.06
2017-01-03T10:05:41.030Z,90.16
2017-01-03T10:06:40.615Z,90.25
2017-01-03T10:07:40.610Z,89.59
2017-01-03T10:08:41.015Z,89.5
2017-01-03T10:09:41.014Z,89.4
2017-01-03T10:10:41.010Z,89.31
2017-01-03T10:11:40.999Z,89.12
2017-01-03T10:12:40.587Z,89.03
2017-01-03T10:13:40.579Z,89.12
2017-01-03T10:14:40.578Z,88.93
2017-01-03T10:15:40.979Z,88.17
2017-01-03T10:16:40.979Z,88.17
2017-01-03T10:17:40.975Z,88.08
2017-01-03T10:18:40.971Z,88.08
2017-01-03T10:19:40.971Z,87.32
2017-01-03T10:20:40.963Z,87.61
2017-01-03T10:21:40.955Z,87.51
2017-01-03T10:22:40.951Z,87.13
2017-01-03T10:23:40.947Z,86.85
2017-01-03T10:24:40.947Z,86.76
2017-01-03T10:25:40.943Z,86.76
2017-01-03T10:26:40.938Z,86.38
2017-01-03T10:27:40.931Z,86.38
2017-01-03T10:28:40.931Z,86.57
2017-01-03T10:29:40.919Z,86.1
2017-01-03T10:30:40.919Z,85.72
2017-01-03T10:31:40.923Z,85.81
2017-01-03T10:32:40.915Z,85.62
2017-01-03T10:33:40.907Z,85.66
2017-01-03T10:34:40.906Z,85.28
2017-01-03T10:35:40.890Z,85.47
2017-01-03T10:36:40.894Z,85.1
2017-01-03T10:37:40.891Z,84.44
2017-01-03T10:38:40.478Z,84.81
2017-01-03T10:39:40.883Z,84.06
2017-01-03T10:40:40.882Z,84.25
2017-01-03T10:41:40.878Z,84.06
2017-01-03T10:42:40.875Z,83.97
2017-01-03T10:43:40.870Z,83.87
2017-01-03T10:44:40.862Z,83.3
2017-01-03T10:45:40.450Z,83.68
2017-01-03T10:46:40.443Z,83.3
2017-01-03T10:47:40.438Z,83.78
2017-01-03T10:48:40.847Z,82.92
2017-01-03T10:49:40.843Z,83.02
2017-01-03T10:50:40.847Z,82.54
2017-01-03T10:51:40.418Z,82.45
2017-01-03T10:52:40.415Z,82.73
2017-01-03T10:53:40.823Z,82.64
2017-01-03T10:54:40.819Z,82.68
2017-01-03T10:55:40.404Z,82.31
2017-01-03T10:56:40.820Z,82.21
2017-01-03T10:57:40.813Z,82.4
2017-01-03T10:58:40.808Z,82.4
2017-01-03T10:59:40.392Z,81.83
2017-01-03T11:00:40.792Z,81.93
2017-01-03T11:01:40.798Z,82.21
2017-01-03T11:02:40.785Z,81.55
2017-01-03T11:03:40.377Z,81.3
2017-01-03T11:04:40.785Z,81.02
2017-01-03T11:05:40.370Z,80.55
2017-01-03T11:06:40.774Z,79.69
2017-01-03T11:07:40.781Z,79.32
2017-01-03T11:08:40.774Z,79.17
2017-01-03T11:09:40.770Z,78.59
2017-01-03T11:10:40.350Z,78.31
2017-01-03T11:11:40.754Z,77.75
2017-01-03T11:12:40.339Z,77.94
2017-01-03T11:13:40.755Z,77.5
2017-01-03T11:14:40.339Z,77.03
2017-01-03T11:15:40.747Z,76.65
2017-01-03T11:16:40.324Z,75.6
2017-01-03T11:17:40.735Z,75.51
2017-01-03T11:18:40.727Z,74.51
2017-01-03T11:19:40.732Z,74.51
2017-01-03T11:20:40.754Z,73.56
2017-01-03T11:21:40.308Z,72.99
2017-01-03T11:22:40.712Z,73.27
2017-01-03T11:23:40.717Z,73.18
2017-01-03T11:24:40.713Z,73.18
2017-01-03T11:25:40.705Z,73.08
2017-01-03T11:26:40.709Z,72.52
2017-01-03T11:27:40.701Z,72.57
2017-01-03T11:28:40.701Z,72.19
2017-01-03T11:29:40.693Z,72.67
2017-01-03T11:30:40.693Z,72.38
2017-01-03T11:31:40.689Z,72.57
2017-01-03T11:32:40.682Z,73.01
2017-01-03T11:33:40.674Z,73.11
2017-01-03T11:34:40.683Z,73.2
2017-01-03T11:35:40.669Z,73.96
2017-01-03T11:36:40.670Z,73.2
2017-01-03T11:37:40.670Z,73.49
2017-01-03T11:38:40.662Z,73.83
2017-01-03T11:39:40.670Z,74.58
2017-01-03T11:40:40.655Z,74.21
2017-01-03T11:41:40.654Z,75.05
2017-01-03T11:42:40.651Z,74.87
2017-01-03T11:43:40.651Z,74.77
2017-01-03T11:44:40.639Z,75.05
2017-01-03T11:45:40.639Z,74.87
2017-01-03T11:46:40.663Z,75.34
2017-01-03T11:47:40.227Z,75.62
2017-01-03T11:48:40.632Z,75.49
2017-01-03T11:49:40.628Z,75.91
2017-01-03T11:50:40.628Z,76.25
2017-01-03T11:51:40.624Z,76.53
2017-01-03T11:52:40.612Z,76.63
2017-01-03T11:53:40.605Z,76.91
2017-01-03T11:54:40.616Z,77.2
2017-01-03T11:55:40.609Z,77.29
2017-01-03T11:56:40.601Z,77.58
2017-01-03T11:57:40.193Z,77.39
2017-01-03T11:58:40.601Z,77.48
2017-01-03T11:59:40.593Z,77.1
2017-01-03T12:00:40.589Z,77.58
2017-01-03T12:01:40.581Z,77.01
2017-01-03T12:02:40.182Z,77.67
2017-01-03T12:03:40.581Z,77.58
2017-01-03T12:04:40.582Z,77.48
2017-01-03T12:05:40.578Z,77.99
2017-01-03T12:06:40.570Z,77.95
2017-01-03T12:07:40.158Z,77.29
2017-01-03T12:08:40.154Z,77.33
2017-01-03T12:09:40.562Z,77.89
2017-01-03T12:10:40.562Z,78.08
2017-01-03T12:11:40.558Z,77.89
2017-01-03T12:12:40.143Z,77.89
2017-01-03T12:13:40.139Z,77.86
2017-01-03T12:14:40.551Z,77.89
2017-01-03T12:15:40.543Z,77.86
2017-01-03T12:16:40.539Z,77.99
2017-01-03T12:17:40.539Z,78.14
2017-01-03T12:18:40.123Z,77.99
2017-01-03T12:19:40.527Z,78.23
2017-01-03T12:20:40.524Z,78.23
2017-01-03T12:21:40.528Z,78.56
2017-01-03T12:22:40.520Z,78.46
2017-01-03T12:23:40.108Z,78.37
2017-01-03T12:24:40.516Z,78.42
2017-01-03T12:25:40.508Z,78.46
2017-01-03T12:26:40.504Z,78.52
2017-01-03T12:27:40.504Z,78.52
2017-01-03T12:28:40.501Z,78.46
2017-01-03T12:29:40.497Z,79.03
2017-01-03T12:30:40.493Z,78.85
2017-01-03T12:31:40.493Z,78.61
2017-01-03T12:32:40.497Z,78.85
2017-01-03T12:33:40.481Z,78.9
2017-01-03T12:34:40.477Z,78.99
2017-01-03T12:35:40.474Z,79.28
2017-01-03T12:36:40.473Z,79.09
2017-01-03T12:37:40.469Z,79.75
2017-01-03T12:38:40.470Z,79.94
2017-01-03T12:39:40.054Z,79.37
2017-01-03T12:40:40.458Z,79.09
2017-01-03T12:41:40.454Z,79.28
2017-01-03T12:42:40.450Z,79.47
2017-01-03T12:43:40.038Z,79.47
2017-01-03T12:44:40.442Z,79.41
2017-01-03T12:45:40.447Z,79.6
2017-01-03T12:46:40.438Z,79.85
2017-01-03T12:47:40.439Z,79.32
2017-01-03T12:48:40.431Z,79.41
2017-01-03T12:49:40.423Z,79.41
2017-01-03T12:50:40.427Z,79.41
2017-01-03T12:51:40.421Z,79.69
2017-01-03T12:52:40.415Z,79.32
2017-01-03T12:53:40.007Z,79.32
2017-01-03T12:54:40.411Z,79.88
2017-01-03T12:55:40.408Z,79.6
2017-01-03T12:56:40.399Z,79.6